NCAR-RAP Real-Time Weather Data

Output produced by METARs form (24 April 2018  22:51 UTC)
found at http://weather.rap.ucar.edu/surface/
 
Conditions at: KTYQ observed 24 April 2018  22:15 UTC
Temperature: 12.0°C (54°F)
Dewpoint: 11.6°C (53°F) [RH = 97%]
Pressure (altimeter): 29.94 inches Hg (1014.0 mb)
Winds: from the N (360 degrees) at 8 MPH (7 knots; 3.6 m/s)
Visibility: 10 or more miles (16+ km)
Ceiling: 1800 feet AGL
Clouds: scattered clouds at 600 feet AGL
broken clouds at 1800 feet AGL
overcast cloud deck at 2400 feet AGL
Present Weather: automated observation with no human augmentation;
there may or may not be significant weather present at this time
KTYQ 242215Z AUTO 36007KT 10SM SCT006 BKN018 OVC024 12/12 A2994 RMK AO2 T01200116